sensor_id;sensor_type;location;lat;lon;timestamp;pressure;altitude;pressure_sealevel;temperature;humidity
65754;BME280;69207;47.502;18.940;2023-09-19T00:00:46;97602.69;;;22.16;76.48
65754;BME280;69207;47.502;18.940;2023-09-19T00:01:50;97613.88;;;22.16;76.42
65754;BME280;69207;47.502;18.940;2023-09-19T00:02:57;97610.34;;;22.15;76.28
65754;BME280;69207;47.502;18.940;2023-09-19T00:04:02;97615.00;;;22.00;77.16
65754;BME280;69207;47.502;18.940;2023-09-19T00:05:06;97614.25;;;21.98;77.57
65754;BME280;69207;47.502;18.940;2023-09-19T00:06:12;97613.50;;;21.93;77.56
65754;BME280;69207;47.502;18.940;2023-09-19T00:07:18;97619.66;;;21.85;78.03
65754;BME280;69207;47.502;18.940;2023-09-19T00:08:21;97618.88;;;21.81;78.38
65754;BME280;69207;47.502;18.940;2023-09-19T00:09:27;97623.06;;;21.82;78.46
65754;BME280;69207;47.502;18.940;2023-09-19T00:10:31;97622.97;;;21.76;78.70
65754;BME280;69207;47.502;18.940;2023-09-19T00:11:38;97617.34;;;21.72;78.92
65754;BME280;69207;47.502;18.940;2023-09-19T00:12:43;97618.25;;;21.86;78.48
65754;BME280;69207;47.502;18.940;2023-09-19T00:13:49;97617.63;;;21.90;78.00
65754;BME280;69207;47.502;18.940;2023-09-19T00:14:53;97609.34;;;21.98;77.72
65754;BME280;69207;47.502;18.940;2023-09-19T00:15:57;97613.50;;;21.93;77.92
65754;BME280;69207;47.502;18.940;2023-09-19T00:17:02;97610.69;;;21.93;77.99
65754;BME280;69207;47.502;18.940;2023-09-19T00:18:11;97619.66;;;21.85;78.31
65754;BME280;69207;47.502;18.940;2023-09-19T00:19:14;97618.78;;;21.75;78.89
65754;BME280;69207;47.502;18.940;2023-09-19T00:20:19;97613.78;;;21.69;79.24
65754;BME280;69207;47.502;18.940;2023-09-19T00:21:24;97618.59;;;21.65;79.69
65754;BME280;69207;47.502;18.940;2023-09-19T00:22:27;97620.84;;;21.72;79.32
65754;BME280;69207;47.502;18.940;2023-09-19T00:23:31;97615.25;;;21.74;79.18
65754;BME280;69207;47.502;18.940;2023-09-19T00:24:36;97610.28;;;21.69;79.45
65754;BME280;69207;47.502;18.940;2023-09-19T00:25:40;97614.34;;;21.61;80.04
65754;BME280;69207;47.502;18.940;2023-09-19T00:26:45;97614.25;;;21.55;80.40
65754;BME280;69207;47.502;18.940;2023-09-19T00:27:49;97607.91;;;21.53;80.83
65754;BME280;69207;47.502;18.940;2023-09-19T00:28:54;97615.03;;;21.60;80.55
65754;BME280;69207;47.502;18.940;2023-09-19T00:29:58;97604.78;;;21.75;79.44
65754;BME280;69207;47.502;18.940;2023-09-19T00:31:01;97615.97;;;21.75;79.50
65754;BME280;69207;47.502;18.940;2023-09-19T00:32:07;97618.78;;;21.75;79.44
65754;BME280;69207;47.502;18.940;2023-09-19T00:33:11;97620.78;;;21.70;79.70
65754;BME280;69207;47.502;18.940;2023-09-19T00:34:19;97618.59;;;21.65;80.06
65754;BME280;69207;47.502;18.940;2023-09-19T00:35:23;97616.41;;;21.59;80.39
65754;BME280;69207;47.502;18.940;2023-09-19T00:36:26;97619.09;;;21.53;80.89
65754;BME280;69207;47.502;18.940;2023-09-19T00:37:29;97614.97;;;21.56;80.92
65754;BME280;69207;47.502;18.940;2023-09-19T00:38:35;97609.31;;;21.54;81.12
65754;BME280;69207;47.502;18.940;2023-09-19T00:39:38;97612.00;;;21.48;81.46
65754;BME280;69207;47.502;18.940;2023-09-19T00:40:45;97613.50;;;21.53;81.17
65754;BME280;69207;47.502;18.940;2023-09-19T00:41:48;97614.78;;;21.46;81.50
65754;BME280;69207;47.502;18.940;2023-09-19T00:42:51;97614.66;;;21.40;81.99
65754;BME280;69207;47.502;18.940;2023-09-19T00:43:55;97614.63;;;21.38;82.03
65754;BME280;69207;47.502;18.940;2023-09-19T00:44:59;97614.59;;;21.35;82.21
65754;BME280;69207;47.502;18.940;2023-09-19T00:46:06;97618.13;;;21.38;82.18
65754;BME280;69207;47.502;18.940;2023-09-19T00:47:11;97608.31;;;21.37;82.33
65754;BME280;69207;47.502;18.940;2023-09-19T00:48:23;97608.97;;;21.33;82.62
65754;BME280;69207;47.502;18.940;2023-09-19T00:49:27;97612.50;;;21.36;82.58
65754;BME280;69207;47.502;18.940;2023-09-19T00:50:31;97618.16;;;21.40;82.44
65754;BME280;69207;47.502;18.940;2023-09-19T00:51:35;97613.88;;;21.35;82.92
65754;BME280;69207;47.502;18.940;2023-09-19T00:52:39;97610.47;;;21.39;82.90
65754;BME280;69207;47.502;18.940;2023-09-19T00:53:43;97616.06;;;21.39;82.77
65754;BME280;69207;47.502;18.940;2023-09-19T00:54:49;97623.00;;;21.38;82.93
65754;BME280;69207;47.502;18.940;2023-09-19T00:55:53;97609.97;;;21.50;82.47
65754;BME280;69207;47.502;18.940;2023-09-19T00:56:56;97613.50;;;21.53;82.27
65754;BME280;69207;47.502;18.940;2023-09-19T00:58:00;97613.38;;;21.47;82.57
65754;BME280;69207;47.502;18.940;2023-09-19T00:59:03;97607.87;;;21.51;82.40
65754;BME280;69207;47.502;18.940;2023-09-19T01:00:07;97612.75;;;21.50;82.59
65754;BME280;69207;47.502;18.940;2023-09-19T01:01:14;97618.19;;;21.42;82.94
65754;BME280;69207;47.502;18.940;2023-09-19T01:02:19;97605.53;;;21.37;83.25
65754;BME280;69207;47.502;18.940;2023-09-19T01:03:22;97616.25;;;21.51;82.83
65754;BME280;69207;47.502;18.940;2023-09-19T01:04:26;97615.03;;;21.60;82.21
65754;BME280;69207;47.502;18.940;2023-09-19T01:05:31;97616.47;;;21.63;82.13
65754;BME280;69207;47.502;18.940;2023-09-19T01:06:34;97608.63;;;21.53;82.54
65754;BME280;69207;47.502;18.940;2023-09-19T01:07:40;97615.44;;;21.44;83.10
65754;BME280;69207;47.502;18.940;2023-09-19T01:08:43;97619.50;;;21.37;83.72
65754;BME280;69207;47.502;18.940;2023-09-19T01:09:47;97611.91;;;21.42;83.59
65754;BME280;69207;47.502;18.940;2023-09-19T01:11:00;97610.84;;;21.61;82.65
65754;BME280;69207;47.502;18.940;2023-09-19T01:12:07;97612.09;;;21.52;82.94
65754;BME280;69207;47.502;18.940;2023-09-19T01:13:43;97612.12;;;21.54;82.88
65754;BME280;69207;47.502;18.940;2023-09-19T01:14:57;97617.69;;;21.52;82.92
65754;BME280;69207;47.502;18.940;2023-09-19T01:17:30;97610.75;;;21.55;82.94
65754;BME280;69207;47.502;18.940;2023-09-19T01:18:40;97611.88;;;21.40;83.59
65754;BME280;69207;47.502;18.940;2023-09-19T01:20:11;97615.28;;;21.36;84.03
65754;BME280;69207;47.502;18.940;2023-09-19T01:21:26;97607.72;;;21.43;83.84
65754;BME280;69207;47.502;18.940;2023-09-19T01:28:54;97606.00;;;21.25;84.97
65754;BME280;69207;47.502;18.940;2023-09-19T01:30:17;97611.56;;;21.25;85.12
65754;BME280;69207;47.502;18.940;2023-09-19T01:31:21;97611.09;;;21.35;84.72
65754;BME280;69207;47.502;18.940;2023-09-19T01:32:27;97607.59;;;21.34;84.52
65754;BME280;69207;47.502;18.940;2023-09-19T01:33:55;97606.03;;;21.27;84.99
65754;BME280;69207;47.502;18.940;2023-09-19T01:35:02;97597.09;;;21.33;84.95
65754;BME280;69207;47.502;18.940;2023-09-19T01:36:08;97610.31;;;21.30;85.03
65754;BME280;69207;47.502;18.940;2023-09-19T01:37:13;97594.03;;;21.21;85.44
65754;BME280;69207;47.502;18.940;2023-09-19T01:38:23;97598.84;;;21.16;85.82
65754;BME280;69207;47.502;18.940;2023-09-19T01:39:26;97597.38;;;21.13;86.11
65754;BME280;69207;47.502;18.940;2023-09-19T01:40:29;97596.97;;;21.29;85.46
65754;BME280;69207;47.502;18.940;2023-09-19T01:44:29;97596.69;;;21.13;86.27
65754;BME280;69207;47.502;18.940;2023-09-19T01:46:07;97597.38;;;21.13;86.24
65754;BME280;69207;47.502;18.940;2023-09-19T01:47:37;97597.28;;;21.09;86.60
65754;BME280;69207;47.502;18.940;2023-09-19T01:48:49;97595.88;;;21.08;86.87
65754;BME280;69207;47.502;18.940;2023-09-19T01:50:07;97593.69;;;21.02;87.25
65754;BME280;69207;47.502;18.940;2023-09-19T01:51:18;97592.94;;;21.00;87.46
65754;BME280;69207;47.502;18.940;2023-09-19T01:52:28;97592.13;;;20.93;87.96
65754;BME280;69207;47.502;18.940;2023-09-19T01:54:46;97597.63;;;20.89;88.36
65754;BME280;69207;47.502;18.940;2023-09-19T01:55:52;97592.84;;;20.94;88.25
65754;BME280;69207;47.502;18.940;2023-09-19T01:57:04;97594.84;;;20.89;88.34
65754;BME280;69207;47.502;18.940;2023-09-19T01:58:20;97590.47;;;20.82;88.77
65754;BME280;69207;47.502;18.940;2023-09-19T01:59:28;97591.13;;;20.78;88.89
65754;BME280;69207;47.502;18.940;2023-09-19T02:00:36;97596.81;;;20.82;88.82
65754;BME280;69207;47.502;18.940;2023-09-19T02:01:42;97599.72;;;20.89;88.52
65754;BME280;69207;47.502;18.940;2023-09-19T02:02:47;97594.63;;;20.79;89.00
65754;BME280;69207;47.502;18.940;2023-09-19T02:03:53;97595.28;;;20.77;89.15
65754;BME280;69207;47.502;18.940;2023-09-19T02:04:57;97598.31;;;20.88;88.92
65754;BME280;69207;47.502;18.940;2023-09-19T02:06:00;97596.16;;;20.86;88.86
65754;BME280;69207;47.502;18.940;2023-09-19T02:07:03;97596.00;;;20.78;89.24
65754;BME280;69207;47.502;18.940;2023-09-19T02:08:08;97593.09;;;20.72;89.80
65754;BME280;69207;47.502;18.940;2023-09-19T02:09:12;97593.66;;;20.66;90.10
65754;BME280;69207;47.502;18.940;2023-09-19T02:10:15;97586.66;;;20.65;90.40
65754;BME280;69207;47.502;18.940;2023-09-19T02:11:21;97592.22;;;20.65;90.58
65754;BME280;69207;47.502;18.940;2023-09-19T02:12:24;97590.75;;;20.60;90.85
65754;BME280;69207;47.502;18.940;2023-09-19T02:13:27;97594.97;;;20.61;90.84
65754;BME280;69207;47.502;18.940;2023-09-19T02:14:31;97592.78;;;20.58;90.95
65754;BME280;69207;47.502;18.940;2023-09-19T02:15:35;97595.53;;;20.55;91.38
65754;BME280;69207;47.502;18.940;2023-09-19T02:16:39;97591.28;;;20.52;91.52
65754;BME280;69207;47.502;18.940;2023-09-19T02:17:43;97598.34;;;20.55;91.47
65754;BME280;69207;47.502;18.940;2023-09-19T02:18:50;97601.13;;;20.55;91.53
65754;BME280;69207;47.502;18.940;2023-09-19T02:19:54;97599.03;;;20.56;91.55
65754;BME280;69207;47.502;18.940;2023-09-19T02:21:02;97601.03;;;20.51;91.98
65754;BME280;69207;47.502;18.940;2023-09-19T02:22:07;97601.69;;;20.50;92.06
65754;BME280;69207;47.502;18.940;2023-09-19T02:23:10;97602.31;;;20.46;92.66
65754;BME280;69207;47.502;18.940;2023-09-19T02:24:14;97601.59;;;20.46;92.55
65754;BME280;69207;47.502;18.940;2023-09-19T02:25:18;97591.78;;;20.45;92.85
65754;BME280;69207;47.502;18.940;2023-09-19T02:26:22;97607.13;;;20.44;93.00
65754;BME280;69207;47.502;18.940;2023-09-19T02:27:26;97593.09;;;20.42;93.22
65754;BME280;69207;47.502;18.940;2023-09-19T02:28:29;97597.97;;;20.41;93.24
65754;BME280;69207;47.502;18.940;2023-09-19T02:29:35;97590.28;;;20.40;93.57
65754;BME280;69207;47.502;18.940;2023-09-19T02:30:39;97593.69;;;20.36;93.85
65754;BME280;69207;47.502;18.940;2023-09-19T02:31:41;97594.41;;;20.37;93.74
65754;BME280;69207;47.502;18.940;2023-09-19T02:32:45;97598.53;;;20.34;94.15
65754;BME280;69207;47.502;18.940;2023-09-19T02:33:49;97594.25;;;20.30;94.35
65754;BME280;69207;47.502;18.940;2023-09-19T02:34:51;97591.38;;;20.26;94.66
65754;BME280;69207;47.502;18.940;2023-09-19T02:35:55;97591.38;;;20.26;94.61
65754;BME280;69207;47.502;18.940;2023-09-19T02:37:08;97597.63;;;20.25;94.49
65754;BME280;69207;47.502;18.940;2023-09-19T02:38:16;97592.00;;;20.23;94.62
65754;BME280;69207;47.502;18.940;2023-09-19T02:39:24;97600.25;;;20.17;95.15
65754;BME280;69207;47.502;18.940;2023-09-19T02:40:27;97596.75;;;20.16;95.02
65754;BME280;69207;47.502;18.940;2023-09-19T02:41:31;97595.94;;;20.12;95.44
65754;BME280;69207;47.502;18.940;2023-09-19T02:42:35;97596.53;;;20.08;95.48
65754;BME280;69207;47.502;18.940;2023-09-19T02:43:38;97588.12;;;20.06;95.64
65754;BME280;69207;47.502;18.940;2023-09-19T02:44:42;97586.63;;;20.01;95.92
65754;BME280;69207;47.502;18.940;2023-09-19T02:45:46;97592.16;;;19.99;96.33
65754;BME280;69207;47.502;18.940;2023-09-19T02:46:59;97591.34;;;19.94;96.64
65754;BME280;69207;47.502;18.940;2023-09-19T02:48:03;97593.37;;;19.92;96.63
65754;BME280;69207;47.502;18.940;2023-09-19T02:49:07;97588.56;;;19.94;96.41
65754;BME280;69207;47.502;18.940;2023-09-19T02:50:10;97591.41;;;19.96;96.27
65754;BME280;69207;47.502;18.940;2023-09-19T02:51:14;97591.41;;;19.96;96.19
65754;BME280;69207;47.502;18.940;2023-09-19T02:52:17;97596.97;;;19.96;96.16
65754;BME280;69207;47.502;18.940;2023-09-19T02:53:20;97601.84;;;19.96;96.10
65754;BME280;69207;47.502;18.940;2023-09-19T02:54:24;97593.28;;;19.88;96.46
65754;BME280;69207;47.502;18.940;2023-09-19T02:55:27;97585.44;;;19.80;97.46
65754;BME280;69207;47.502;18.940;2023-09-19T02:56:31;97599.94;;;19.74;97.98
65754;BME280;69207;47.502;18.940;2023-09-19T02:57:36;97588.62;;;19.68;98.68
65754;BME280;69207;47.502;18.940;2023-09-19T02:58:43;97588.53;;;19.64;98.95
65754;BME280;69207;47.502;18.940;2023-09-19T02:59:47;97589.84;;;19.61;99.33
65754;BME280;69207;47.502;18.940;2023-09-19T03:00:50;97582.78;;;19.58;99.55
65754;BME280;69207;47.502;18.940;2023-09-19T03:01:54;97589.09;;;19.59;99.55
65754;BME280;69207;47.502;18.940;2023-09-19T03:02:57;97594.03;;;19.60;99.67
65754;BME280;69207;47.502;18.940;2023-09-19T03:04:03;97591.81;;;19.57;99.79
65754;BME280;69207;47.502;18.940;2023-09-19T03:05:11;97594.53;;;19.55;100.00
65754;BME280;69207;47.502;18.940;2023-09-19T03:06:15;97598.69;;;19.53;100.00
65754;BME280;69207;47.502;18.940;2023-09-19T03:07:18;97591.00;;;19.52;100.00
65754;BME280;69207;47.502;18.940;2023-09-19T03:08:21;97583.44;;;19.57;100.00
65754;BME280;69207;47.502;18.940;2023-09-19T03:09:25;97583.41;;;19.55;100.00
65754;BME280;69207;47.502;18.940;2023-09-19T03:10:28;97585.47;;;19.54;100.00
65754;BME280;69207;47.502;18.940;2023-09-19T03:11:32;97583.50;;;19.59;100.00
65754;BME280;69207;47.502;18.940;2023-09-19T03:12:36;97594.03;;;19.60;99.99
65754;BME280;69207;47.502;18.940;2023-09-19T03:13:39;97594.75;;;19.63;99.73
65754;BME280;69207;47.502;18.940;2023-09-19T03:14:43;97598.47;;;19.71;99.20
65754;BME280;69207;47.502;18.940;2023-09-19T03:15:46;97599.75;;;19.66;99.37
65754;BME280;69207;47.502;18.940;2023-09-19T03:16:52;97598.22;;;19.61;99.82
65754;BME280;69207;47.502;18.940;2023-09-19T03:17:55;97601.63;;;19.60;100.00
65754;BME280;69207;47.502;18.940;2023-09-19T03:18:58;97598.31;;;19.65;99.92
65754;BME280;69207;47.502;18.940;2023-09-19T03:20:03;97601.84;;;19.68;99.77
65754;BME280;69207;47.502;18.940;2023-09-19T03:21:12;97595.78;;;19.75;99.42
65754;BME280;69207;47.502;18.940;2023-09-19T03:22:16;97597.09;;;19.72;99.65
65754;BME280;69207;47.502;18.940;2023-09-19T03:23:20;97600.50;;;19.69;99.97
65754;BME280;69207;47.502;18.940;2023-09-19T03:24:23;97601.25;;;19.71;99.85
65754;BME280;69207;47.502;18.940;2023-09-19T03:25:26;97597.81;;;19.73;99.83
65754;BME280;69207;47.502;18.940;2023-09-19T03:26:31;97602.00;;;19.74;99.75
65754;BME280;69207;47.502;18.940;2023-09-19T03:27:36;97601.34;;;19.75;99.75
65754;BME280;69207;47.502;18.940;2023-09-19T03:28:40;97593.03;;;19.77;99.56
65754;BME280;69207;47.502;18.940;2023-09-19T03:29:43;97595.16;;;19.79;99.47
65754;BME280;69207;47.502;18.940;2023-09-19T03:30:57;97590.19;;;19.75;99.57
65754;BME280;69207;47.502;18.940;2023-09-19T03:32:01;97595.06;;;19.75;99.72
65754;BME280;69207;47.502;18.940;2023-09-19T03:33:04;97595.06;;;19.75;99.73
65754;BME280;69207;47.502;18.940;2023-09-19T03:34:09;97595.13;;;19.77;99.76
65754;BME280;69207;47.502;18.940;2023-09-19T03:35:12;97598.00;;;19.81;99.56
65754;BME280;69207;47.502;18.940;2023-09-19T03:36:17;97601.44;;;19.80;99.62
65754;BME280;69207;47.502;18.940;2023-09-19T03:37:20;97594.59;;;19.85;99.54
65754;BME280;69207;47.502;18.940;2023-09-19T03:38:23;97595.88;;;19.80;99.81
65754;BME280;69207;47.502;18.940;2023-09-19T03:39:26;97597.34;;;19.83;99.77
65754;BME280;69207;47.502;18.940;2023-09-19T03:40:30;97600.28;;;19.89;99.61
65754;BME280;69207;47.502;18.940;2023-09-19T03:41:33;97597.50;;;19.89;99.63
65754;BME280;69207;47.502;18.940;2023-09-19T03:42:40;97596.16;;;19.92;99.48
65754;BME280;69207;47.502;18.940;2023-09-19T03:43:43;97599.06;;;19.96;99.08
65754;BME280;69207;47.502;18.940;2023-09-19T03:44:46;97598.94;;;19.92;99.40
65754;BME280;69207;47.502;18.940;2023-09-19T03:45:50;97599.66;;;19.92;99.55
65754;BME280;69207;47.502;18.940;2023-09-19T03:46:53;97601.09;;;19.93;99.54
65754;BME280;69207;47.502;18.940;2023-09-19T03:47:58;97601.81;;;19.94;99.44
65754;BME280;69207;47.502;18.940;2023-09-19T03:49:02;97598.19;;;19.89;99.76
65754;BME280;69207;47.502;18.940;2023-09-19T03:50:06;97600.87;;;19.85;100.00
65754;BME280;69207;47.502;18.940;2023-09-19T03:51:17;97599.47;;;19.84;100.00
65754;BME280;69207;47.502;18.940;2023-09-19T03:52:21;97596.62;;;19.82;100.00
65754;BME280;69207;47.502;18.940;2023-09-19T03:53:24;97593.13;;;19.82;100.00
65754;BME280;69207;47.502;18.940;2023-09-19T03:54:27;97594.50;;;19.81;100.00
65754;BME280;69207;47.502;18.940;2023-09-19T03:55:30;97598.63;;;19.77;100.00
65754;BME280;69207;47.502;18.940;2023-09-19T03:56:33;97600.03;;;19.78;100.00
65754;BME280;69207;47.502;18.940;2023-09-19T03:57:37;97602.16;;;19.80;100.00
65754;BME280;69207;47.502;18.940;2023-09-19T03:58:40;97608.59;;;19.87;100.00
65754;BME280;69207;47.502;18.940;2023-09-19T03:59:43;97611.44;;;19.89;100.00
65754;BME280;69207;47.502;18.940;2023-09-19T04:00:46;97615.03;;;19.93;99.95
65754;BME280;69207;47.502;18.940;2023-09-19T04:01:49;97620.91;;;20.06;99.10
65754;BME280;69207;47.502;18.940;2023-09-19T04:02:53;97613.16;;;20.04;98.87
65754;BME280;69207;47.502;18.940;2023-09-19T04:03:59;97616.44;;;19.94;99.37
65754;BME280;69207;47.502;18.940;2023-09-19T04:05:10;97622.19;;;20.02;98.83
65754;BME280;69207;47.502;18.940;2023-09-19T04:06:14;97621.53;;;20.04;98.67
65754;BME280;69207;47.502;18.940;2023-09-19T04:07:18;97626.97;;;19.98;99.20
65754;BME280;69207;47.502;18.940;2023-09-19T04:08:25;97624.03;;;19.92;99.66
65754;BME280;69207;47.502;18.940;2023-09-19T04:09:28;97630.25;;;19.88;100.00
65754;BME280;69207;47.502;18.940;2023-09-19T04:10:31;97619.03;;;19.86;100.00
65754;BME280;69207;47.502;18.940;2023-09-19T04:11:34;97621.16;;;19.88;100.00
65754;BME280;69207;47.502;18.940;2023-09-19T04:12:37;97617.63;;;19.85;100.00
65754;BME280;69207;47.502;18.940;2023-09-19T04:13:41;97618.28;;;19.84;100.00
65754;BME280;69207;47.502;18.940;2023-09-19T04:14:45;97612.62;;;19.82;100.00
65754;BME280;69207;47.502;18.940;2023-09-19T04:15:48;97614.06;;;19.83;99.85
65754;BME280;69207;47.502;18.940;2023-09-19T04:16:51;97611.94;;;19.81;99.60
65754;BME280;69207;47.502;18.940;2023-09-19T04:17:55;97615.37;;;19.80;99.90
65754;BME280;69207;47.502;18.940;2023-09-19T04:18:58;97621.69;;;19.82;99.91
65754;BME280;69207;47.502;18.940;2023-09-19T04:20:01;97623.75;;;19.80;100.00
65754;BME280;69207;47.502;18.940;2023-09-19T04:21:07;97623.75;;;19.80;100.00
65754;BME280;69207;47.502;18.940;2023-09-19T04:22:11;97618.88;;;19.80;100.00
65754;BME280;69207;47.502;18.940;2023-09-19T04:23:16;97624.41;;;19.78;100.00
65754;BME280;69207;47.502;18.940;2023-09-19T04:24:19;97622.25;;;19.76;100.00
65754;BME280;69207;47.502;18.940;2023-09-19T04:25:22;97622.22;;;19.74;100.00
65754;BME280;69207;47.502;18.940;2023-09-19T04:26:26;97625.72;;;19.75;100.00
65754;BME280;69207;47.502;18.940;2023-09-19T04:27:29;97623.63;;;19.75;100.00
65754;BME280;69207;47.502;18.940;2023-09-19T04:28:32;97622.87;;;19.73;100.00
65754;BME280;69207;47.502;18.940;2023-09-19T04:29:37;97631.25;;;19.73;100.00
65754;BME280;69207;47.502;18.940;2023-09-19T04:30:41;97624.97;;;19.72;100.00
65754;BME280;69207;47.502;18.940;2023-09-19T04:31:44;97627.12;;;19.76;100.00
65754;BME280;69207;47.502;18.940;2023-09-19T04:32:48;97637.53;;;19.73;100.00
65754;BME280;69207;47.502;18.940;2023-09-19T04:33:54;97637.53;;;19.73;99.98
65754;BME280;69207;47.502;18.940;2023-09-19T04:34:58;97631.97;;;19.73;99.41
65754;BME280;69207;47.502;18.940;2023-09-19T04:36:03;97638.94;;;19.74;98.68
65754;BME280;69207;47.502;18.940;2023-09-19T04:37:28;97643.22;;;19.77;98.47
65754;BME280;69207;47.502;18.940;2023-09-19T04:38:31;97637.81;;;19.86;98.03
65754;BME280;69207;47.502;18.940;2023-09-19T04:39:34;97644.31;;;19.94;96.85
65754;BME280;69207;47.502;18.940;2023-09-19T04:40:37;97649.19;;;19.94;96.34
65754;BME280;69207;47.502;18.940;2023-09-19T04:41:42;97645.63;;;19.91;96.25
65754;BME280;69207;47.502;18.940;2023-09-19T04:42:54;97653.00;;;19.78;97.10
65754;BME280;69207;47.502;18.940;2023-09-19T04:44:00;97652.44;;;19.84;96.16
65754;BME280;69207;47.502;18.940;2023-09-19T04:45:04;97658.59;;;19.81;96.06
65754;BME280;69207;47.502;18.940;2023-09-19T04:46:07;97666.16;;;19.76;96.29
65754;BME280;69207;47.502;18.940;2023-09-19T04:47:11;97663.44;;;19.78;95.83
65754;BME280;69207;47.502;18.940;2023-09-19T04:48:15;97661.91;;;19.73;95.39
65754;BME280;69207;47.502;18.940;2023-09-19T04:49:19;97666.09;;;19.74;95.54
65754;BME280;69207;47.502;18.940;2023-09-19T04:50:22;97667.69;;;19.81;95.40
65754;BME280;69207;47.502;18.940;2023-09-19T04:51:26;97658.19;;;19.64;96.36
65754;BME280;69207;47.502;18.940;2023-09-19T04:52:32;97662.81;;;19.56;97.45
65754;BME280;69207;47.502;18.940;2023-09-19T04:53:36;97668.25;;;19.49;98.13
65754;BME280;69207;47.502;18.940;2023-09-19T04:54:40;97670.25;;;19.47;98.37
65754;BME280;69207;47.502;18.940;2023-09-19T04:55:44;97662.66;;;19.49;98.50
65754;BME280;69207;47.502;18.940;2023-09-19T04:56:46;97660.03;;;19.56;98.26
65754;BME280;69207;47.502;18.940;2023-09-19T04:57:50;97661.87;;;19.47;98.71
65754;BME280;69207;47.502;18.940;2023-09-19T04:58:54;97659.53;;;19.37;99.52
65754;BME280;69207;47.502;18.940;2023-09-19T04:59:57;97665.66;;;19.32;100.00
65754;BME280;69207;47.502;18.940;2023-09-19T05:01:00;97660.00;;;19.28;100.00
65754;BME280;69207;47.502;18.940;2023-09-19T05:02:04;97662.78;;;19.28;100.00
65754;BME280;69207;47.502;18.940;2023-09-19T05:03:08;97671.19;;;19.30;100.00
65754;BME280;69207;47.502;18.940;2023-09-19T05:04:11;97668.34;;;19.28;100.00
65754;BME280;69207;47.502;18.940;2023-09-19T05:05:15;97667.69;;;19.29;100.00
65754;BME280;69207;47.502;18.940;2023-09-19T05:06:20;97681.03;;;19.33;100.00
65754;BME280;69207;47.502;18.940;2023-09-19T05:07:26;97673.31;;;19.31;100.00
65754;BME280;69207;47.502;18.940;2023-09-19T05:08:29;97678.59;;;19.21;100.00
65754;BME280;69207;47.502;18.940;2023-09-19T05:09:32;97678.50;;;19.17;100.00
65754;BME280;69207;47.502;18.940;2023-09-19T05:10:37;97676.41;;;19.17;100.00
65754;BME280;69207;47.502;18.940;2023-09-19T05:11:40;97686.78;;;19.15;100.00
65754;BME280;69207;47.502;18.940;2023-09-19T05:12:44;97687.97;;;19.08;100.00
65754;BME280;69207;47.502;18.940;2023-09-19T05:13:51;97686.38;;;19.01;100.00
65754;BME280;69207;47.502;18.940;2023-09-19T05:14:55;97687.56;;;18.93;100.00
65754;BME280;69207;47.502;18.940;2023-09-19T05:16:01;97675.44;;;18.83;100.00
65754;BME280;69207;47.502;18.940;2023-09-19T05:17:05;97687.28;;;18.83;100.00
65754;BME280;69207;47.502;18.940;2023-09-19T05:18:08;97688.44;;;18.76;100.00
65754;BME280;69207;47.502;18.940;2023-09-19T05:19:11;97693.91;;;18.72;100.00
65754;BME280;69207;47.502;18.940;2023-09-19T05:20:15;97694.25;;;18.84;100.00
65754;BME280;69207;47.502;18.940;2023-09-19T05:21:27;97691.91;;;18.77;100.00
65754;BME280;69207;47.502;18.940;2023-09-19T05:22:33;97690.50;;;18.76;100.00
65754;BME280;69207;47.502;18.940;2023-09-19T05:23:37;97698.00;;;18.71;100.00
65754;BME280;69207;47.502;18.940;2023-09-19T05:24:40;97700.94;;;18.75;100.00
65754;BME280;69207;47.502;18.940;2023-09-19T05:25:43;97710.25;;;18.62;100.00
65754;BME280;69207;47.502;18.940;2023-09-19T05:26:47;97698.16;;;18.53;100.00
65754;BME280;69207;47.502;18.940;2023-09-19T05:27:53;97702.16;;;18.48;100.00
65754;BME280;69207;47.502;18.940;2023-09-19T05:28:56;97697.97;;;18.47;100.00
65754;BME280;69207;47.502;18.940;2023-09-19T05:29:59;97709.69;;;18.43;100.00
65754;BME280;69207;47.502;18.940;2023-09-19T05:31:02;97708.75;;;18.37;100.00
65754;BME280;69207;47.502;18.940;2023-09-19T05:32:05;97712.53;;;18.45;100.00
65754;BME280;69207;47.502;18.940;2023-09-19T05:33:09;97710.41;;;18.44;100.00
65754;BME280;69207;47.502;18.940;2023-09-19T05:34:12;97705.34;;;18.38;100.00
65754;BME280;69207;47.502;18.940;2023-09-19T05:35:15;97713.03;;;18.40;100.00
65754;BME280;69207;47.502;18.940;2023-09-19T05:36:18;97702.62;;;18.40;100.00
65754;BME280;69207;47.502;18.940;2023-09-19T05:37:22;97710.62;;;18.30;100.00
65754;BME280;69207;47.502;18.940;2023-09-19T05:38:26;97705.09;;;18.30;100.00
65754;BME280;69207;47.502;18.940;2023-09-19T05:39:30;97709.09;;;18.25;100.00
65754;BME280;69207;47.502;18.940;2023-09-19T05:40:33;97702.75;;;18.23;100.00
65754;BME280;69207;47.502;18.940;2023-09-19T05:41:37;97703.47;;;18.23;100.00
65754;BME280;69207;47.502;18.940;2023-09-19T05:42:43;97702.16;;;18.26;100.00
65754;BME280;69207;47.502;18.940;2023-09-19T05:43:49;97695.00;;;18.19;100.00
65754;BME280;69207;47.502;18.940;2023-09-19T05:44:53;97706.81;;;18.19;100.00
65754;BME280;69207;47.502;18.940;2023-09-19T05:45:56;97702.16;;;18.26;100.00
65754;BME280;69207;47.502;18.940;2023-09-19T05:46:59;97701.00;;;18.11;100.00
65754;BME280;69207;47.502;18.940;2023-09-19T05:48:10;97700.72;;;18.03;100.00
65754;BME280;69207;47.502;18.940;2023-09-19T05:49:14;97704.16;;;18.02;100.00
65754;BME280;69207;47.502;18.940;2023-09-19T05:50:18;97704.22;;;18.04;100.00
65754;BME280;69207;47.502;18.940;2023-09-19T05:51:22;97711.78;;;18.01;100.00
65754;BME280;69207;47.502;18.940;2023-09-19T05:52:26;97714.56;;;18.01;100.00